Cool Springs, Kentucky
Current Conditions -  °F | °C
As of 3:15 PM on Wednesday 26 Nov 2014 (Local Time) from K2I0 Reporting Station
Overcast Overcast  
Wind Chill: 46°   Ceiling: 9000
Heat Index: 46°   Visibility: 10mi
Dew Point: 26°   Wind: 3mph
Humidity: 45%   Direction: 150°SSE
Pressure: 30.01"   Gusts: NA
Location:  37.3559°N, 86.8747°W
Report Text: K2I0 262115Z AUTO 15003KT 10SM SCT070 OVC090 08/M04 A3001 RMK AO2 T00771036
Loading
Personal Weather Stations






























Interactive Weather Map New forecast layout! Learn more

10-Day Weather Forecast

Advertisements
Track Severe Weather on mobile